Time;durP1;ratioP1;P1;durP2;ratioP2;P2;SDS_P1;SDS_P2;PMS_P1;PMS_P2;Temp;Humidity;BMP_temperature;BMP_pressure;BME280_temperature;BME280_humidity;BME280_pressure;Samples;Min_cycle;Max_cycle;Signal;HPM_P1;HPM_P2
2022/10/30 00:00:53;;;;;;;25.25;13.77;;;13.40;99.90;;;;;;6185625;23;20151;-86
2022/10/30 00:03:18;;;;;;;22.15;12.55;;;13.40;99.90;;;;;;6211322;23;20012;-86
2022/10/30 00:05:47;;;;;;;26.73;12.45;;;13.30;99.90;;;;;;6209558;23;20055;-87
2022/10/30 00:08:16;;;;;;;21.08;12.38;;;13.30;99.90;;;;;;6184567;23;20019;-86
2022/10/30 00:10:42;;;;;;;24.65;12.23;;;13.30;99.90;;;;;;6209628;23;20016;-85
2022/10/30 00:13:08;;;;;;;23.30;13.40;;;13.20;99.90;;;;;;6211663;23;20017;-86
2022/10/30 00:15:34;;;;;;;24.35;14.18;;;13.30;99.90;;;;;;6185402;23;20204;-86
2022/10/30 00:18:00;;;;;;;27.17;13.07;;;13.30;99.90;;;;;;6211508;23;20090;-86
2022/10/30 00:20:26;;;;;;;26.70;13.75;;;13.30;99.90;;;;;;6184251;23;20063;-86
2022/10/30 00:22:52;;;;;;;25.73;13.18;;;13.30;99.90;;;;;;6210879;23;20028;-86
2022/10/30 00:25:17;;;;;;;24.60;13.18;;;13.30;99.90;;;;;;6184491;23;20425;-86
2022/10/30 00:27:43;;;;;;;27.13;13.57;;;13.30;99.90;;;;;;6184481;23;20083;-85
2022/10/30 00:30:10;;;;;;;28.45;13.82;;;13.30;99.90;;;;;;6211516;23;20012;-86
2022/10/30 00:32:35;;;;;;;24.75;12.73;;;13.30;99.90;;;;;;6211615;23;20033;-86
2022/10/30 00:35:01;;;;;;;29.35;13.68;;;13.30;99.90;;;;;;6210092;23;20345;-86
2022/10/30 00:37:27;;;;;;;28.48;13.32;;;13.30;99.90;;;;;;6183754;23;20013;-86
2022/10/30 00:39:52;;;;;;;22.77;12.85;;;13.30;99.90;;;;;;6184580;23;20016;-86
2022/10/30 00:42:18;;;;;;;24.52;13.00;;;13.30;99.90;;;;;;6209647;23;20024;-86
2022/10/30 00:44:44;;;;;;;24.60;12.48;;;13.30;99.90;;;;;;6185131;23;20023;-87
2022/10/30 00:47:24;;;;;;;26.77;13.90;;;13.30;99.90;;;;;;6209502;23;20021;-86
2022/10/30 00:50:11;;;;;;;21.77;12.10;;;13.30;99.90;;;;;;6184886;23;20067;-87
2022/10/30 00:52:43;;;;;;;23.70;12.88;;;13.30;99.90;;;;;;6212423;23;20016;-86
2022/10/30 00:55:15;;;;;;;23.23;12.00;;;13.30;99.90;;;;;;6185061;23;20020;-86
2022/10/30 00:57:43;;;;;;;23.17;11.85;;;13.20;99.90;;;;;;6184794;23;20024;-86
2022/10/30 01:00:10;;;;;;;22.58;13.38;;;13.20;99.90;;;;;;6211748;23;20333;-86
2022/10/30 01:02:38;;;;;;;21.88;12.25;;;13.20;99.90;;;;;;6211215;23;20017;-86
2022/10/30 01:05:05;;;;;;;21.65;11.68;;;13.10;99.90;;;;;;6183358;23;20024;-86
2022/10/30 01:07:30;;;;;;;22.55;12.75;;;13.10;99.90;;;;;;6186173;23;20035;-86
2022/10/30 01:09:56;;;;;;;26.20;12.45;;;13.10;99.90;;;;;;6186090;23;20016;-85
2022/10/30 01:12:22;;;;;;;23.60;12.68;;;13.10;99.90;;;;;;6185604;23;20013;-86
2022/10/30 01:14:57;;;;;;;23.33;12.48;;;13.10;99.90;;;;;;6185155;23;20058;-86
2022/10/30 01:17:49;;;;;;;19.77;11.82;;;13.00;99.90;;;;;;6184693;23;20027;-85
2022/10/30 01:20:21;;;;;;;28.65;12.63;;;13.00;99.90;;;;;;6208563;23;20021;-86
2022/10/30 01:23:17;;;;;;;19.33;11.68;;;12.80;99.90;;;;;;6208779;23;20017;-86
2022/10/30 01:25:51;;;;;;;21.38;10.95;;;13.00;99.90;;;;;;6209502;23;20035;-86
2022/10/30 01:28:25;;;;;;;24.00;11.48;;;12.90;99.90;;;;;;6211010;23;20020;-86
2022/10/30 01:31:09;;;;;;;25.30;13.45;;;12.90;99.90;;;;;;6184096;23;20055;-86
2022/10/30 01:33:38;;;;;;;29.47;11.70;;;12.90;99.90;;;;;;6209155;23;20099;-86
2022/10/30 01:36:23;;;;;;;25.55;12.82;;;12.90;99.90;;;;;;6208939;23;20024;-85
2022/10/30 01:39:00;;;;;;;21.63;13.15;;;12.90;99.90;;;;;;6210009;23;20091;-86
2022/10/30 01:41:25;;;;;;;25.95;12.52;;;12.90;99.90;;;;;;6183954;23;20066;-86
2022/10/30 01:43:55;;;;;;;27.85;12.77;;;12.90;99.90;;;;;;6159074;23;20101;-86
2022/10/30 01:46:28;;;;;;;26.05;12.45;;;12.90;99.90;;;;;;6184258;23;20012;-86
2022/10/30 01:49:20;;;;;;;23.05;11.50;;;13.00;99.90;;;;;;6211042;23;20017;-86
2022/10/30 01:52:18;;;;;;;23.63;12.18;;;13.00;99.90;;;;;;6210330;23;20086;-86
2022/10/30 01:55:12;;;;;;;22.77;11.65;;;13.00;99.90;;;;;;6211400;23;20159;-86
2022/10/30 01:58:01;;;;;;;20.98;12.23;;;13.00;99.90;;;;;;6183879;23;20065;-86
2022/10/30 02:00:27;;;;;;;20.30;11.70;;;13.00;99.90;;;;;;6210325;23;20055;-86
2022/10/30 02:02:53;;;;;;;24.65;13.13;;;12.90;99.90;;;;;;6183229;23;20024;-85
2022/10/30 02:05:42;;;;;;;25.70;12.98;;;12.90;99.90;;;;;;6211141;23;20142;-86
2022/10/30 02:08:08;;;;;;;26.58;12.32;;;12.90;99.90;;;;;;6210760;23;20012;-86
2022/10/30 02:10:37;;;;;;;26.38;13.18;;;12.90;99.90;;;;;;6184120;23;20023;-86
2022/10/30 02:13:04;;;;;;;21.50;11.70;;;12.90;99.90;;;;;;6159127;23;20020;-86
2022/10/30 02:15:30;;;;;;;19.33;11.15;;;12.90;99.90;;;;;;6184121;23;20445;-86
2022/10/30 02:17:56;;;;;;;27.55;11.93;;;12.90;99.90;;;;;;6210260;23;20440;-86
2022/10/30 02:20:23;;;;;;;24.50;11.77;;;12.90;99.90;;;;;;6184451;23;20656;-86
2022/10/30 02:22:48;;;;;;;21.42;12.40;;;12.90;99.90;;;;;;6159227;23;20042;-86
2022/10/30 02:25:14;;;;;;;23.27;13.13;;;12.90;99.90;;;;;;6183478;23;20020;-86
2022/10/30 02:27:41;;;;;;;24.58;11.68;;;12.90;99.90;;;;;;6210979;23;20032;-86
2022/10/30 02:30:07;;;;;;;21.13;11.18;;;12.90;99.90;;;;;;6210873;23;20012;-86
2022/10/30 02:32:33;;;;;;;26.13;11.60;;;12.80;99.90;;;;;;6209618;23;20008;-86
2022/10/30 02:34:59;;;;;;;21.58;11.10;;;12.80;99.90;;;;;;6208632;23;20463;-86
2022/10/30 02:37:24;;;;;;;22.58;11.90;;;12.80;99.90;;;;;;6210622;23;20012;-86
2022/10/30 02:39:50;;;;;;;19.85;11.02;;;12.80;99.90;;;;;;6185809;23;20441;-86
2022/10/30 02:42:16;;;;;;;19.63;10.57;;;12.80;99.90;;;;;;6210947;23;20021;-86
2022/10/30 02:44:42;;;;;;;18.40;10.52;;;12.70;99.90;;;;;;6213126;23;20016;-86
2022/10/30 02:47:08;;;;;;;21.85;11.73;;;12.70;99.90;;;;;;6212454;23;20009;-85
2022/10/30 02:49:33;;;;;;;18.02;11.02;;;12.70;99.90;;;;;;6211127;23;20467;-85
2022/10/30 02:51:59;;;;;;;22.60;11.10;;;12.60;99.90;;;;;;6212628;23;20093;-86
2022/10/30 02:54:24;;;;;;;23.65;11.43;;;12.70;99.90;;;;;;6212936;23;20051;-86
2022/10/30 02:56:50;;;;;;;22.70;12.00;;;12.70;99.90;;;;;;6212635;23;20051;-86
2022/10/30 02:59:16;;;;;;;23.98;12.20;;;12.60;99.90;;;;;;6212712;23;20017;-86
2022/10/30 03:01:42;;;;;;;22.00;12.10;;;12.60;99.90;;;;;;6184135;23;20021;-86
2022/10/30 03:04:08;;;;;;;23.85;11.52;;;12.60;99.90;;;;;;6212710;23;20020;-85
2022/10/30 03:06:34;;;;;;;25.35;12.25;;;12.50;99.90;;;;;;6185824;23;20024;-85
2022/10/30 03:08:59;;;;;;;26.00;11.45;;;12.50;99.90;;;;;;6212606;23;20013;-85
2022/10/30 03:11:25;;;;;;;22.10;11.73;;;12.50;99.90;;;;;;6217240;23;20015;-86
2022/10/30 03:13:51;;;;;;;19.67;12.35;;;12.50;99.90;;;;;;6214910;23;20103;-86
2022/10/30 03:16:20;;;;;;;24.35;12.07;;;12.40;99.90;;;;;;6185564;23;20437;-85
2022/10/30 03:18:46;;;;;;;24.05;12.35;;;12.50;99.90;;;;;;6185993;23;20023;-86
2022/10/30 03:21:17;;;;;;;25.88;12.60;;;12.50;99.90;;;;;;6185934;23;20632;-85
2022/10/30 03:23:43;;;;;;;25.23;11.63;;;12.50;99.90;;;;;;6185037;23;20031;-86
2022/10/30 03:26:09;;;;;;;24.80;12.15;;;12.50;99.90;;;;;;6160688;23;20425;-85
2022/10/30 03:28:35;;;;;;;25.75;13.07;;;12.50;99.90;;;;;;6160447;23;20092;-86
2022/10/30 03:31:06;;;;;;;23.25;12.18;;;12.50;99.90;;;;;;6209239;23;20016;-86
2022/10/30 03:33:33;;;;;;;23.40;12.43;;;12.50;99.90;;;;;;6212140;23;20019;-85
2022/10/30 03:35:59;;;;;;;23.33;11.65;;;12.50;99.90;;;;;;6212469;23;20019;-85
2022/10/30 03:38:25;;;;;;;23.30;12.63;;;12.50;99.90;;;;;;6211061;23;20100;-86
2022/10/30 03:40:51;;;;;;;28.65;13.88;;;12.50;99.90;;;;;;6212054;23;20020;-86
2022/10/30 03:43:17;;;;;;;25.48;12.85;;;12.50;99.90;;;;;;6211937;23;20024;-85
2022/10/30 03:45:51;;;;;;;22.38;13.00;;;12.50;99.90;;;;;;6210828;23;20063;-86
2022/10/30 03:48:18;;;;;;;27.85;13.10;;;12.50;99.90;;;;;;6159969;23;20055;-86
2022/10/30 03:50:44;;;;;;;26.25;11.98;;;12.50;99.90;;;;;;6185156;23;20017;-87
2022/10/30 03:53:10;;;;;;;26.50;12.60;;;12.50;99.90;;;;;;6160103;23;20095;-86
2022/10/30 03:55:36;;;;;;;26.77;13.40;;;12.40;99.90;;;;;;6184634;23;20044;-86
2022/10/30 03:58:02;;;;;;;20.88;12.15;;;12.50;99.90;;;;;;6212413;23;20102;-86
2022/10/30 04:00:28;;;;;;;28.27;11.85;;;12.40;99.90;;;;;;6184185;23;20083;-85
2022/10/30 04:02:54;;;;;;;26.58;13.20;;;12.40;99.90;;;;;;6209875;23;20440;-85
2022/10/30 04:05:21;;;;;;;24.33;11.98;;;12.50;99.90;;;;;;6211650;23;20023;-85
2022/10/30 04:07:47;;;;;;;23.85;12.93;;;12.40;99.90;;;;;;6211598;23;20021;-85
2022/10/30 04:10:14;;;;;;;22.55;13.15;;;12.40;99.90;;;;;;6211657;23;20021;-86
2022/10/30 04:12:40;;;;;;;34.03;13.80;;;12.40;99.90;;;;;;6211730;23;20333;-86
2022/10/30 04:15:07;;;;;;;31.02;13.73;;;12.40;99.90;;;;;;6184328;23;20027;-86
2022/10/30 04:17:33;;;;;;;27.95;13.55;;;12.40;99.90;;;;;;6185363;23;20023;-85
2022/10/30 04:19:59;;;;;;;28.80;14.85;;;12.40;99.90;;;;;;6184926;23;20092;-86
2022/10/30 04:22:25;;;;;;;24.30;13.13;;;12.40;99.90;;;;;;6209685;23;20491;-86
2022/10/30 04:24:52;;;;;;;24.73;14.13;;;12.40;99.90;;;;;;6211189;23;20456;-86
2022/10/30 04:27:19;;;;;;;27.40;13.65;;;12.30;99.90;;;;;;6184434;23;20394;-84
2022/10/30 04:29:45;;;;;;;22.70;13.18;;;12.40;99.90;;;;;;6183800;23;20169;-85
2022/10/30 04:32:12;;;;;;;26.15;12.32;;;12.40;99.90;;;;;;6185031;23;20016;-86
2022/10/30 04:34:38;;;;;;;25.00;13.73;;;12.40;99.90;;;;;;6159381;23;20020;-85
2022/10/30 04:37:07;;;;;;;23.27;12.63;;;12.40;99.90;;;;;;6210616;23;20608;-85
2022/10/30 04:39:33;;;;;;;25.60;13.23;;;12.40;99.90;;;;;;6183994;23;20079;-86
2022/10/30 04:41:58;;;;;;;20.77;12.38;;;12.40;99.90;;;;;;6209388;23;20024;-85
2022/10/30 04:44:24;;;;;;;21.60;13.15;;;12.40;99.90;;;;;;6158802;23;20017;-85
2022/10/30 04:46:50;;;;;;;24.05;13.98;;;12.30;99.90;;;;;;6184171;23;20009;-85
2022/10/30 04:49:15;;;;;;;25.05;13.02;;;12.30;99.90;;;;;;6183773;23;20433;-85
2022/10/30 04:51:41;;;;;;;25.38;13.13;;;12.30;99.90;;;;;;6209154;23;20093;-85
2022/10/30 04:54:07;;;;;;;25.45;13.68;;;12.30;99.90;;;;;;6208888;23;20027;-86
2022/10/30 04:56:32;;;;;;;26.92;13.95;;;12.30;99.90;;;;;;6210242;23;20017;-86
2022/10/30 04:58:58;;;;;;;27.60;13.88;;;12.30;99.90;;;;;;6158571;23;20012;-86
2022/10/30 05:01:24;;;;;;;25.40;12.85;;;12.30;99.90;;;;;;6183240;23;20310;-85
2022/10/30 05:03:49;;;;;;;22.70;13.57;;;12.30;99.90;;;;;;6210770;23;20022;-85
2022/10/30 05:06:26;;;;;;;25.73;13.73;;;12.30;99.90;;;;;;6211027;23;20016;-85
2022/10/30 05:08:52;;;;;;;29.05;13.48;;;12.30;99.90;;;;;;6210813;23;20023;-86
2022/10/30 05:11:18;;;;;;;25.55;13.98;;;12.30;99.90;;;;;;6182883;23;20016;-85
2022/10/30 05:13:43;;;;;;;24.05;13.10;;;12.30;99.90;;;;;;6210092;23;20472;-85
2022/10/30 05:16:09;;;;;;;23.90;13.38;;;12.10;99.90;;;;;;6185537;23;20016;-86
2022/10/30 05:18:35;;;;;;;26.42;13.25;;;12.20;99.90;;;;;;6184573;23;20013;-85
2022/10/30 05:21:00;;;;;;;31.58;14.68;;;12.20;99.90;;;;;;6211847;23;20070;-85
2022/10/30 05:23:26;;;;;;;24.67;14.02;;;12.20;99.90;;;;;;6158977;23;20349;-85
2022/10/30 05:25:51;;;;;;;26.10;12.68;;;12.30;99.90;;;;;;6210267;23;20044;-85
2022/10/30 05:28:17;;;;;;;22.92;13.50;;;12.30;99.90;;;;;;6183593;23;20039;-85
2022/10/30 05:30:43;;;;;;;24.08;13.77;;;12.30;99.90;;;;;;6208319;23;20111;-85
2022/10/30 05:33:10;;;;;;;27.85;13.60;;;12.30;99.90;;;;;;6183412;23;20437;-86
2022/10/30 05:35:37;;;;;;;22.13;13.55;;;12.30;99.90;;;;;;6210263;23;20020;-85
2022/10/30 05:38:05;;;;;;;23.30;13.77;;;12.30;99.90;;;;;;6182402;23;20067;-86
2022/10/30 05:40:32;;;;;;;26.80;14.18;;;12.30;99.90;;;;;;6182722;23;20016;-85
2022/10/30 05:42:57;;;;;;;28.08;14.65;;;12.20;99.90;;;;;;6183046;23;20016;-85
2022/10/30 05:45:23;;;;;;;26.80;14.43;;;12.20;99.90;;;;;;6209475;23;20009;-86
2022/10/30 05:48:00;;;;;;;22.42;12.68;;;12.20;99.90;;;;;;6210417;23;20158;-86
2022/10/30 05:50:26;;;;;;;25.63;14.25;;;12.20;99.90;;;;;;6157066;23;20020;-85
2022/10/30 05:52:56;;;;;;;29.15;13.88;;;12.20;99.90;;;;;;6183152;23;20017;-85
2022/10/30 05:55:22;;;;;;;27.05;14.45;;;12.20;99.90;;;;;;6182605;23;20016;-85
2022/10/30 05:57:48;;;;;;;27.33;13.65;;;12.20;99.90;;;;;;6183653;23;20437;-85
2022/10/30 06:00:15;;;;;;;24.15;14.02;;;12.20;99.90;;;;;;6210245;23;20016;-84
2022/10/30 06:02:40;;;;;;;29.08;14.48;;;12.20;99.90;;;;;;6207677;23;20055;-86
2022/10/30 06:05:06;;;;;;;24.75;13.00;;;12.20;99.90;;;;;;6210399;23;20021;-86
2022/10/30 06:07:32;;;;;;;22.50;13.93;;;12.10;99.90;;;;;;6209454;23;20358;-86
2022/10/30 06:09:58;;;;;;;23.30;13.68;;;12.10;99.90;;;;;;6209486;23;20074;-85
2022/10/30 06:12:23;;;;;;;26.77;14.13;;;12.10;99.90;;;;;;6183077;23;20027;-86
2022/10/30 06:14:49;;;;;;;24.75;14.73;;;12.10;99.90;;;;;;6207044;23;20092;-86
2022/10/30 06:17:18;;;;;;;24.58;13.55;;;12.00;99.90;;;;;;6182444;23;20023;-86
2022/10/30 06:19:43;;;;;;;26.05;13.65;;;12.00;99.90;;;;;;6182338;23;20071;-86
2022/10/30 06:22:09;;;;;;;26.30;15.15;;;12.00;99.90;;;;;;6182274;23;20070;-86
2022/10/30 06:24:35;;;;;;;26.35;12.98;;;11.90;99.90;;;;;;6182305;23;20406;-86
2022/10/30 06:27:00;;;;;;;25.45;13.77;;;12.00;99.90;;;;;;6183101;23;20084;-86
2022/10/30 06:29:26;;;;;;;24.55;13.55;;;12.00;99.90;;;;;;6182514;23;20044;-86
2022/10/30 06:31:51;;;;;;;31.80;14.02;;;11.90;99.90;;;;;;6209444;23;20015;-86
2022/10/30 06:34:17;;;;;;;25.45;14.25;;;11.90;99.90;;;;;;6209725;23;20459;-86
2022/10/30 06:36:43;;;;;;;24.73;13.25;;;11.90;99.90;;;;;;6157318;23;20016;-85
2022/10/30 06:39:08;;;;;;;28.23;14.50;;;11.90;99.90;;;;;;6182622;23;20020;-85
2022/10/30 06:41:34;;;;;;;30.25;15.13;;;12.00;99.90;;;;;;6208255;23;20064;-86
2022/10/30 06:44:00;;;;;;;29.55;14.80;;;11.90;99.90;;;;;;6180865;23;20063;-86
2022/10/30 06:46:26;;;;;;;26.45;14.98;;;11.90;99.90;;;;;;6180942;23;20095;-86
2022/10/30 06:48:51;;;;;;;27.10;13.70;;;11.90;99.90;;;;;;6207249;23;20051;-86
2022/10/30 06:51:17;;;;;;;30.73;15.25;;;11.90;99.90;;;;;;6207770;23;20020;-85
2022/10/30 06:53:43;;;;;;;27.05;14.85;;;11.90;99.90;;;;;;6181169;23;20024;-85
2022/10/30 06:56:08;;;;;;;29.50;14.55;;;11.90;99.90;;;;;;6155746;23;20012;-85
2022/10/30 06:58:37;;;;;;;28.17;14.27;;;11.90;99.90;;;;;;6208407;23;20008;-85
2022/10/30 07:01:07;;;;;;;28.40;14.07;;;11.90;99.90;;;;;;6156239;23;20744;-85
2022/10/30 07:03:33;;;;;;;28.10;14.63;;;11.90;99.90;;;;;;6180912;23;20027;-85
2022/10/30 07:05:59;;;;;;;30.50;14.93;;;12.00;99.90;;;;;;6207322;23;20005;-87
2022/10/30 07:08:25;;;;;;;25.42;14.07;;;11.90;99.90;;;;;;6181512;23;20008;-87
2022/10/30 07:10:51;;;;;;;27.85;14.98;;;12.00;99.90;;;;;;6157253;23;20334;-88
2022/10/30 07:13:17;;;;;;;27.35;14.85;;;12.00;99.90;;;;;;6206695;23;20333;-87
2022/10/30 07:15:42;;;;;;;30.35;16.15;;;12.30;99.90;;;;;;6208525;23;20425;-87
2022/10/30 07:18:09;;;;;;;25.40;13.82;;;12.00;99.90;;;;;;6208268;23;20042;-87
2022/10/30 07:20:35;;;;;;;26.08;15.23;;;12.10;99.90;;;;;;6182274;23;20524;-86
2022/10/30 07:23:02;;;;;;;27.15;16.55;;;12.10;99.90;;;;;;6210320;23;20013;-87
2022/10/30 07:25:28;;;;;;;36.80;16.40;;;12.00;99.90;;;;;;6211858;23;20173;-85
2022/10/30 07:27:55;;;;;;;24.85;14.82;;;12.10;99.90;;;;;;6211922;23;20024;-88
2022/10/30 07:30:24;;;;;;;25.20;15.60;;;12.10;99.90;;;;;;6210898;23;20100;-86
2022/10/30 07:33:04;;;;;;;29.70;15.52;;;12.10;99.90;;;;;;6184409;23;20013;-86
2022/10/30 07:35:31;;;;;;;32.33;15.82;;;12.20;99.90;;;;;;6211305;23;20004;-82
2022/10/30 07:38:03;;;;;;;27.45;14.00;;;12.20;99.90;;;;;;6209736;23;20541;-85
2022/10/30 07:40:30;;;;;;;31.88;15.38;;;12.20;99.90;;;;;;6183450;23;20024;-85
2022/10/30 07:42:56;;;;;;;26.45;15.15;;;12.20;99.90;;;;;;6182626;23;20004;-85
2022/10/30 07:45:22;;;;;;;27.83;15.45;;;12.20;99.90;;;;;;6210440;23;20674;-83
2022/10/30 07:47:48;;;;;;;25.10;15.55;;;12.30;99.90;;;;;;6184130;23;20016;-84
2022/10/30 07:50:14;;;;;;;29.75;16.42;;;12.30;99.90;;;;;;6207771;23;20020;-86
2022/10/30 07:52:39;;;;;;;28.77;17.30;;;12.30;99.90;;;;;;6181774;23;20018;-85
2022/10/30 07:55:05;;;;;;;30.75;16.30;;;12.30;99.90;;;;;;6182813;23;20035;-85
2022/10/30 07:57:39;;;;;;;31.55;15.93;;;12.30;99.90;;;;;;6157177;23;20048;-84
2022/10/30 08:00:10;;;;;;;29.35;16.50;;;12.40;99.90;;;;;;6209637;23;20091;-83
2022/10/30 08:02:36;;;;;;;33.78;16.35;;;12.40;99.90;;;;;;6209564;23;20020;-85
2022/10/30 08:05:03;;;;;;;30.33;15.65;;;12.40;99.90;;;;;;6182654;23;20017;-85
2022/10/30 08:07:34;;;;;;;30.50;15.85;;;12.50;99.90;;;;;;6181368;23;20020;-84
2022/10/30 08:10:00;;;;;;;31.17;16.45;;;12.50;99.90;;;;;;6182189;23;20039;-84
2022/10/30 08:12:26;;;;;;;28.02;17.05;;;12.60;99.90;;;;;;6209562;23;20429;-85
2022/10/30 08:14:52;;;;;;;29.52;16.23;;;12.70;99.90;;;;;;6182426;23;20463;-83
2022/10/30 08:17:19;;;;;;;26.80;16.95;;;12.70;99.90;;;;;;6208762;23;20460;-83
2022/10/30 08:19:45;;;;;;;27.35;15.93;;;12.80;99.90;;;;;;6181933;23;20025;-81
2022/10/30 08:22:11;;;;;;;30.00;16.58;;;12.90;99.90;;;;;;6182087;23;20451;-85
2022/10/30 08:24:36;;;;;;;32.55;16.77;;;12.90;99.90;;;;;;6209207;23;20009;-85
2022/10/30 08:27:03;;;;;;;32.25;16.55;;;13.00;99.90;;;;;;6157760;23;20017;-86
2022/10/30 08:29:28;;;;;;;30.00;16.60;;;13.00;99.90;;;;;;6209075;23;20012;-84
2022/10/30 08:31:54;;;;;;;24.50;15.82;;;13.00;99.90;;;;;;6182192;23;20338;-84
2022/10/30 08:34:20;;;;;;;27.98;16.13;;;13.10;99.90;;;;;;6208633;23;20460;-84
2022/10/30 08:36:50;;;;;;;30.83;17.50;;;13.20;99.90;;;;;;6182239;23;20013;-83
2022/10/30 08:39:20;;;;;;;35.13;16.83;;;13.20;99.90;;;;;;6209336;23;20012;-83
2022/10/30 08:41:45;;;;;;;31.92;17.30;;;13.20;99.90;;;;;;6182785;23;20017;-82
2022/10/30 08:44:11;;;;;;;26.23;16.33;;;13.30;99.90;;;;;;6182546;23;20322;-83
2022/10/30 08:46:37;;;;;;;27.33;16.60;;;13.30;99.90;;;;;;6209367;23;20080;-82
2022/10/30 08:49:03;;;;;;;30.38;16.85;;;13.40;99.90;;;;;;6209544;23;20016;-82
2022/10/30 08:51:33;;;;;;;27.67;16.85;;;13.40;99.90;;;;;;6158191;23;20063;-85
2022/10/30 08:53:59;;;;;;;29.20;16.83;;;13.40;99.90;;;;;;6182749;23;20104;-85
2022/10/30 08:56:25;;;;;;;27.13;15.55;;;13.50;99.90;;;;;;6157291;23;20044;-85
2022/10/30 08:58:51;;;;;;;29.13;16.15;;;13.60;99.90;;;;;;6181946;23;20016;-85
2022/10/30 09:01:18;;;;;;;27.75;16.70;;;13.60;99.90;;;;;;6181850;23;20009;-85
2022/10/30 09:03:44;;;;;;;28.88;16.67;;;13.60;99.90;;;;;;6180645;23;20036;-86
2022/10/30 09:06:10;;;;;;;28.90;16.67;;;13.70;99.90;;;;;;6179869;23;20473;-86
2022/10/30 09:08:36;;;;;;;27.08;17.20;;;13.70;99.90;;;;;;6182204;23;20021;-86
2022/10/30 09:11:02;;;;;;;31.10;16.52;;;13.70;99.90;;;;;;6182493;23;20444;-86
2022/10/30 09:13:28;;;;;;;32.42;16.30;;;13.80;99.90;;;;;;6210787;23;20017;-85
2022/10/30 09:16:01;;;;;;;30.50;17.63;;;13.90;99.90;;;;;;6183279;23;20344;-85
2022/10/30 09:18:27;;;;;;;26.35;16.17;;;13.90;99.90;;;;;;6183318;23;20048;-85
2022/10/30 09:20:53;;;;;;;26.90;16.15;;;14.00;99.90;;;;;;6182221;23;20265;-85
2022/10/30 09:23:18;;;;;;;28.08;16.58;;;14.10;99.90;;;;;;6179456;23;20634;-87
2022/10/30 09:25:44;;;;;;;27.15;16.80;;;14.10;99.90;;;;;;6180157;23;20082;-88
2022/10/30 09:28:10;;;;;;;26.77;16.33;;;14.30;99.90;;;;;;6182100;23;20017;-86
2022/10/30 09:30:36;;;;;;;25.40;15.23;;;14.40;99.90;;;;;;6208249;23;20017;-86
2022/10/30 09:33:01;;;;;;;30.00;15.95;;;14.50;99.90;;;;;;6210572;23;20013;-86
2022/10/30 09:35:28;;;;;;;27.45;14.88;;;14.70;99.90;;;;;;6207694;23;20015;-86
2022/10/30 09:37:54;;;;;;;27.45;15.40;;;14.90;99.90;;;;;;6183769;23;20051;-86
2022/10/30 09:40:52;;;;;;;28.38;15.93;;;15.00;99.90;;;;;;6182262;23;20079;-88
2022/10/30 09:43:43;;;;;;;22.45;13.95;;;15.20;99.90;;;;;;6209054;23;20021;-86
2022/10/30 09:46:33;;;;;;;26.58;13.60;;;15.40;99.90;;;;;;6183425;23;20012;-85
2022/10/30 09:49:13;;;;;;;27.58;14.13;;;15.60;99.90;;;;;;6208295;23;20429;-87
2022/10/30 09:51:55;;;;;;;23.08;13.10;;;15.80;99.90;;;;;;6207750;23;20017;-88
2022/10/30 09:54:39;;;;;;;27.48;13.70;;;16.00;99.90;;;;;;6182010;23;20021;-86
2022/10/30 09:57:18;;;;;;;32.83;19.52;;;16.20;99.90;;;;;;6183257;23;20067;-90
2022/10/30 10:00:09;;;;;;;29.52;13.98;;;16.50;99.90;;;;;;6209881;23;20036;-86
2022/10/30 10:02:36;;;;;;;22.27;13.40;;;16.60;99.90;;;;;;6181768;23;20009;-86
2022/10/30 10:05:18;;;;;;;23.67;14.18;;;16.80;99.90;;;;;;6209448;23;20023;-86
2022/10/30 10:07:50;;;;;;;18.95;10.93;;;17.00;99.90;;;;;;6183299;23;20016;-86
2022/10/30 10:10:38;;;;;;;23.90;12.65;;;17.10;99.90;;;;;;6157939;23;20008;-87
2022/10/30 10:13:08;;;;;;;24.27;11.32;;;17.30;99.90;;;;;;6158538;23;20476;-86
2022/10/30 10:15:52;;;;;;;21.15;10.05;;;17.40;99.90;;;;;;6209739;23;20013;-86
2022/10/30 10:18:24;;;;;;;25.17;9.82;;;17.50;99.90;;;;;;6183008;23;20023;-86
2022/10/30 10:20:55;;;;;;;17.70;9.88;;;17.60;99.90;;;;;;6182784;23;20015;-86
2022/10/30 10:23:47;;;;;;;21.38;10.48;;;17.80;99.90;;;;;;6182595;23;20092;-86
2022/10/30 10:26:49;;;;;;;23.17;9.63;;;18.00;99.90;;;;;;6156674;23;20473;-86
2022/10/30 10:29:34;;;;;;;19.60;9.25;;;18.10;99.90;;;;;;6182197;23;20009;-85
2022/10/30 10:32:29;;;;;;;20.38;8.45;;;18.20;99.90;;;;;;6209004;23;20017;-86
2022/10/30 10:35:16;;;;;;;19.95;9.63;;;18.40;99.90;;;;;;6182722;23;20451;-88
2022/10/30 10:37:52;;;;;;;18.02;8.60;;;18.50;99.90;;;;;;6182685;23;20028;-84
2022/10/30 10:40:36;;;;;;;16.95;8.32;;;18.50;99.90;;;;;;6209796;23;20020;-85
2022/10/30 10:43:37;;;;;;;17.60;8.57;;;18.50;99.90;;;;;;6183997;23;20012;-84
2022/10/30 10:46:30;;;;;;;19.02;8.88;;;18.50;99.90;;;;;;6181482;23;20078;-85
2022/10/30 10:49:15;;;;;;;16.85;8.50;;;18.60;99.90;;;;;;6209274;23;20028;-85
2022/10/30 10:51:47;;;;;;;17.92;8.23;;;18.60;99.90;;;;;;6183353;23;20024;-85
2022/10/30 10:54:37;;;;;;;15.35;8.02;;;18.70;99.90;;;;;;6210008;23;20361;-86
2022/10/30 10:57:06;;;;;;;21.92;8.60;;;18.90;99.90;;;;;;6210484;23;20021;-84
2022/10/30 10:59:41;;;;;;;18.73;7.72;;;19.00;99.90;;;;;;6210158;23;20013;-85
2022/10/30 11:02:32;;;;;;;18.05;7.60;;;19.20;99.90;;;;;;6159970;23;20017;-85
2022/10/30 11:05:29;;;;;;;13.80;6.85;;;19.30;99.90;;;;;;6176687;23;20043;-85
2022/10/30 11:07:59;;;;;;;15.73;6.72;;;19.40;99.90;;;;;;6183992;23;20310;-85
2022/10/30 11:10:25;;;;;;;20.00;7.65;;;19.50;99.90;;;;;;6211345;23;20044;-85
2022/10/30 11:12:51;;;;;;;15.25;7.72;;;19.60;99.90;;;;;;6183847;23;20074;-85
2022/10/30 11:15:27;;;;;;;16.05;6.57;;;19.70;99.90;;;;;;6210888;23;20389;-85
2022/10/30 11:18:03;;;;;;;14.13;6.82;;;19.80;99.90;;;;;;6184559;23;20084;-85
2022/10/30 11:20:55;;;;;;;16.65;6.75;;;19.90;99.90;;;;;;6212777;23;20012;-88
2022/10/30 11:23:41;;;;;;;12.23;6.40;;;20.00;99.90;;;;;;6186674;23;20459;-87
2022/10/30 11:26:16;;;;;;;15.95;6.93;;;20.10;99.90;;;;;;6214100;23;20087;-90
2022/10/30 11:29:02;;;;;;;18.48;7.43;;;20.20;99.90;;;;;;6213630;23;20008;-88
2022/10/30 11:31:33;;;;;;;13.82;6.28;;;20.30;99.90;;;;;;6188833;23;20013;-89
2022/10/30 11:34:11;;;;;;;9.50;5.55;;;20.40;99.90;;;;;;6192712;23;20027;-88
2022/10/30 11:36:37;;;;;;;16.27;5.57;;;20.40;99.90;;;;;;6193532;23;20016;-89
2022/10/30 11:39:10;;;;;;;15.02;5.88;;;20.50;99.90;;;;;;6216646;23;20093;-88
2022/10/30 11:41:36;;;;;;;14.80;5.70;;;20.50;99.90;;;;;;6188253;23;20333;-88
2022/10/30 11:44:02;;;;;;;18.98;5.95;;;20.50;99.90;;;;;;6183610;23;20024;-90
2022/10/30 11:46:28;;;;;;;15.98;6.60;;;20.50;99.90;;;;;;6184779;23;20344;-89
2022/10/30 11:48:54;;;;;;;14.55;5.65;;;20.50;99.90;;;;;;6211214;23;20021;-92
2022/10/30 11:51:38;;;;;;;15.75;6.30;;;20.40;99.90;;;;;;6185321;23;20012;-87
2022/10/30 11:54:05;;;;;;;13.23;5.60;;;20.40;99.90;;;;;;6184190;23;20024;-88
2022/10/30 11:56:33;;;;;;;16.45;5.60;;;20.30;99.90;;;;;;6185003;23;20042;-88
2022/10/30 11:59:02;;;;;;;17.70;6.10;;;20.20;99.90;;;;;;6210986;23;20067;-88
2022/10/30 12:01:34;;;;;;;16.90;6.55;;;20.20;99.90;;;;;;6159585;23;20048;-87
2022/10/30 12:04:22;;;;;;;14.55;6.60;;;20.10;99.90;;;;;;6184320;23;20008;-88
2022/10/30 12:07:13;;;;;;;14.00;6.75;;;20.20;99.90;;;;;;6184106;23;20024;-87
2022/10/30 12:09:43;;;;;;;16.90;7.22;;;20.40;99.90;;;;;;6158934;23;20016;-88
2022/10/30 12:12:31;;;;;;;13.95;7.07;;;20.50;99.90;;;;;;6183425;23;20015;-88
2022/10/30 12:15:19;;;;;;;15.18;7.15;;;20.60;99.90;;;;;;6211298;23;20052;-88
2022/10/30 12:18:07;;;;;;;21.25;6.93;;;20.60;99.90;;;;;;6211477;23;20013;-88
2022/10/30 12:20:36;;;;;;;15.25;7.43;;;20.60;99.90;;;;;;6184590;23;20523;-87
2022/10/30 12:23:28;;;;;;;16.48;6.85;;;20.50;99.90;;;;;;6210927;23;20012;-88
2022/10/30 12:25:58;;;;;;;16.80;7.10;;;20.40;99.90;;;;;;6204198;23;20349;-87
2022/10/30 12:28:26;;;;;;;13.35;7.15;;;20.30;99.90;;;;;;6183567;23;20016;-87
2022/10/30 12:31:16;;;;;;;18.15;7.07;;;20.20;99.90;;;;;;6211104;23;20055;-88
2022/10/30 12:33:45;;;;;;;15.13;6.55;;;20.10;99.90;;;;;;6211238;23;20437;-87
2022/10/30 12:36:21;;;;;;;17.33;6.65;;;20.00;99.90;;;;;;6184285;23;20105;-88
2022/10/30 12:38:53;;;;;;;12.85;5.80;;;20.00;99.90;;;;;;6210614;23;20028;-87
2022/10/30 12:41:25;;;;;;;18.17;6.10;;;19.90;99.90;;;;;;6210354;23;20445;-87
2022/10/30 12:43:57;;;;;;;17.88;5.95;;;19.90;99.90;;;;;;6210650;23;20445;-87